Time;durP1;ratioP1;P1;durP2;ratioP2;P2;SDS_P1;SDS_P2;PMS_P1;PMS_P2;Temp;Humidity;BMP_temperature;BMP_pressure;BME280_temperature;BME280_humidity;BME280_pressure;Samples;Min_cycle;Max_cycle;Signal;HPM_P1;HPM_P2
2022/09/22 00:01:59;;;;;;;3.33;2.05;;;;;;;;;;5027789;28;20061;-66
2022/09/22 00:04:25;;;;;;;8.80;2.65;;;;;;;;;;5009417;28;20014;-66
2022/09/22 00:06:52;;;;;;;6.25;2.35;;;;;;;;;;5002889;28;20022;-66
2022/09/22 00:09:19;;;;;;;4.13;2.25;;;;;;;;;;5001909;28;20026;-66
2022/09/22 00:11:47;;;;;;;3.63;2.38;;;;;;;;;;5012548;28;20037;-66
2022/09/22 00:14:14;;;;;;;5.88;2.65;;;;;;;;;;5013400;28;20026;-66
2022/09/22 00:16:45;;;;;;;7.93;2.30;;;;;;;;;;5007297;28;20145;-66
2022/09/22 00:19:16;;;;;;;2.28;2.00;;;;;;;;;;5011509;28;20382;-66
2022/09/22 00:21:43;;;;;;;4.20;2.17;;;;;;;;;;5018205;28;20036;-66
2022/09/22 00:24:09;;;;;;;3.55;2.35;;;;;;;;;;4997228;28;20422;-66
2022/09/22 00:26:36;;;;;;;3.17;2.30;;;;;;;;;;5007813;28;20084;-66
2022/09/22 00:29:03;;;;;;;3.83;2.08;;;;;;;;;;5003615;28;20026;-66
2022/09/22 00:31:29;;;;;;;4.88;2.38;;;;;;;;;;5000712;28;20026;-66
2022/09/22 00:33:55;;;;;;;7.65;2.15;;;;;;;;;;5009836;28;20030;-66
2022/09/22 00:36:24;;;;;;;3.83;2.20;;;;;;;;;;5010514;28;20064;-66
2022/09/22 00:38:51;;;;;;;6.10;2.20;;;;;;;;;;5022037;28;20113;-66
2022/09/22 00:41:19;;;;;;;3.78;2.60;;;;;;;;;;5002136;28;20076;-66
2022/09/22 00:43:47;;;;;;;3.47;2.42;;;;;;;;;;5009094;28;20048;-66
2022/09/22 00:46:34;;;;;;;4.05;2.25;;;;;;;;;;5003513;28;20069;-66
2022/09/22 00:49:02;;;;;;;4.68;2.78;;;;;;;;;;5002289;28;20486;-66
2022/09/22 00:51:31;;;;;;;4.07;2.03;;;;;;;;;;5000952;28;20423;-66
2022/09/22 00:53:58;;;;;;;4.47;2.85;;;;;;;;;;5009901;28;20030;-66
2022/09/22 00:56:31;;;;;;;3.67;2.40;;;;;;;;;;5007555;28;20018;-66
2022/09/22 00:59:00;;;;;;;3.58;2.30;;;;;;;;;;5004827;28;20030;-66
2022/09/22 01:01:26;;;;;;;3.42;2.50;;;;;;;;;;5005591;28;20026;-66
2022/09/22 01:03:55;;;;;;;4.15;2.83;;;;;;;;;;4997770;28;20519;-66
2022/09/22 01:06:22;;;;;;;6.28;2.70;;;;;;;;;;5009507;28;20019;-66
2022/09/22 01:08:49;;;;;;;3.13;2.25;;;;;;;;;;5000121;28;20092;-66
2022/09/22 01:11:17;;;;;;;3.47;2.42;;;;;;;;;;5002205;28;20076;-66
2022/09/22 01:14:02;;;;;;;3.42;2.53;;;;;;;;;;5001070;28;20513;-66
2022/09/22 01:16:28;;;;;;;4.90;2.80;;;;;;;;;;5025322;28;20067;-66
2022/09/22 01:19:10;;;;;;;9.38;3.42;;;;;;;;;;5005555;28;20092;-66
2022/09/22 01:21:41;;;;;;;9.65;3.20;;;;;;;;;;5006266;28;20462;-66
2022/09/22 01:24:10;;;;;;;2.80;2.35;;;;;;;;;;4996041;28;20030;-66
2022/09/22 01:26:55;;;;;;;4.07;2.30;;;;;;;;;;5008030;28;20034;-66
2022/09/22 01:29:21;;;;;;;4.68;2.65;;;;;;;;;;5003492;28;20145;-66
2022/09/22 01:31:50;;;;;;;2.50;1.90;;;;;;;;;;4998632;28;20034;-66
2022/09/22 01:34:22;;;;;;;4.03;2.40;;;;;;;;;;5020853;28;20454;-66
2022/09/22 01:37:08;;;;;;;2.87;2.57;;;;;;;;;;5012602;28;20037;-66
2022/09/22 01:39:39;;;;;;;3.80;2.35;;;;;;;;;;5000002;28;20030;-66
2022/09/22 01:42:10;;;;;;;3.92;2.50;;;;;;;;;;5008742;28;20038;-66
2022/09/22 01:44:36;;;;;;;3.45;2.67;;;;;;;;;;5027376;28;20092;-66
2022/09/22 01:47:14;;;;;;;3.50;2.53;;;;;;;;;;5004692;28;20026;-66
2022/09/22 01:49:43;;;;;;;5.85;2.95;;;;;;;;;;5005809;28;20394;-66
2022/09/22 01:52:11;;;;;;;3.75;2.95;;;;;;;;;;5011463;28;20033;-66
2022/09/22 01:54:40;;;;;;;4.65;2.67;;;;;;;;;;5007943;28;20026;-66
2022/09/22 01:57:12;;;;;;;6.30;2.75;;;;;;;;;;5000746;28;20034;-66
2022/09/22 01:59:40;;;;;;;3.88;2.60;;;;;;;;;;5002486;28;20510;-66
2022/09/22 02:02:10;;;;;;;4.82;2.50;;;;;;;;;;4999533;28;20030;-66
2022/09/22 02:04:46;;;;;;;6.63;2.72;;;;;;;;;;5008324;28;20490;-66
2022/09/22 02:07:17;;;;;;;3.50;2.60;;;;;;;;;;5000953;28;20022;-66
2022/09/22 02:09:45;;;;;;;6.22;2.90;;;;;;;;;;5002487;28;20038;-66
2022/09/22 02:12:11;;;;;;;5.07;2.92;;;;;;;;;;5013685;28;20406;-66
2022/09/22 02:14:37;;;;;;;7.75;2.88;;;;;;;;;;4996416;28;20045;-66
2022/09/22 02:17:06;;;;;;;6.97;3.45;;;;;;;;;;5004516;28;20113;-66
2022/09/22 02:19:35;;;;;;;3.83;2.75;;;;;;;;;;5003860;28;20041;-66
2022/09/22 02:22:01;;;;;;;4.70;2.22;;;;;;;;;;4996849;28;20092;-66
2022/09/22 02:24:29;;;;;;;3.60;2.60;;;;;;;;;;5008312;28;20028;-66
2022/09/22 02:26:55;;;;;;;4.18;2.45;;;;;;;;;;4998388;28;20025;-66
2022/09/22 02:29:22;;;;;;;6.18;2.70;;;;;;;;;;5012889;28;20044;-66
2022/09/22 02:31:49;;;;;;;4.03;2.95;;;;;;;;;;4998960;28;20018;-66
2022/09/22 02:34:15;;;;;;;5.20;2.60;;;;;;;;;;5008186;28;20030;-66
2022/09/22 02:36:56;;;;;;;3.35;2.65;;;;;;;;;;5011149;28;20022;-66
2022/09/22 02:39:22;;;;;;;4.22;2.60;;;;;;;;;;5011596;28;20034;-66
2022/09/22 02:42:03;;;;;;;4.53;3.20;;;;;;;;;;4998713;28;20031;-66
2022/09/22 02:44:33;;;;;;;4.80;3.15;;;;;;;;;;5008230;28;20034;-66
2022/09/22 02:47:01;;;;;;;3.95;3.03;;;;;;;;;;5000776;28;20041;-66
2022/09/22 02:49:27;;;;;;;4.90;2.75;;;;;;;;;;5020754;28;20116;-66
2022/09/22 02:51:53;;;;;;;4.35;2.92;;;;;;;;;;4998165;28;20065;-66
2022/09/22 02:54:20;;;;;;;6.13;2.97;;;;;;;;;;5008333;28;20022;-66
2022/09/22 02:56:46;;;;;;;3.55;2.60;;;;;;;;;;4996401;28;20379;-66
2022/09/22 02:59:12;;;;;;;5.28;2.55;;;;;;;;;;5003969;28;20037;-66
2022/09/22 03:01:39;;;;;;;5.28;2.30;;;;;;;;;;5003301;28;20501;-66
2022/09/22 03:04:05;;;;;;;3.28;2.70;;;;;;;;;;4996879;28;20054;-66
2022/09/22 03:06:31;;;;;;;3.50;2.42;;;;;;;;;;5018560;28;20111;-66
2022/09/22 03:08:57;;;;;;;3.92;3.00;;;;;;;;;;5006486;28;20030;-66
2022/09/22 03:11:25;;;;;;;4.97;2.80;;;;;;;;;;4999609;28;20054;-66
2022/09/22 03:13:52;;;;;;;4.80;2.80;;;;;;;;;;5004916;28;20084;-66
2022/09/22 03:16:18;;;;;;;10.68;4.30;;;;;;;;;;5026762;28;20402;-66
2022/09/22 03:18:44;;;;;;;3.20;2.58;;;;;;;;;;5008087;28;20030;-66
2022/09/22 03:21:10;;;;;;;4.32;2.35;;;;;;;;;;5001474;28;20120;-66
2022/09/22 03:23:36;;;;;;;5.30;2.75;;;;;;;;;;5004249;28;20037;-66
2022/09/22 03:26:03;;;;;;;5.78;2.65;;;;;;;;;;5016563;28;20088;-66
2022/09/22 03:28:29;;;;;;;4.25;3.03;;;;;;;;;;5030013;28;20061;-66
2022/09/22 03:30:55;;;;;;;3.88;2.30;;;;;;;;;;5010237;28;20514;-66
2022/09/22 03:33:22;;;;;;;4.55;3.17;;;;;;;;;;5003308;28;20399;-66
2022/09/22 03:35:48;;;;;;;3.95;2.88;;;;;;;;;;5014236;28;20113;-66
2022/09/22 03:38:14;;;;;;;5.05;2.75;;;;;;;;;;4999570;28;20109;-66
2022/09/22 03:40:40;;;;;;;3.95;2.70;;;;;;;;;;5003491;28;20037;-66
2022/09/22 03:43:06;;;;;;;3.30;2.45;;;;;;;;;;5015706;28;20474;-66
2022/09/22 03:45:32;;;;;;;3.63;2.58;;;;;;;;;;5005108;28;20034;-66
2022/09/22 03:47:58;;;;;;;4.57;2.85;;;;;;;;;;5007872;28;20022;-66
2022/09/22 03:50:27;;;;;;;5.93;3.10;;;;;;;;;;5026252;28;20033;-66
2022/09/22 03:52:53;;;;;;;5.55;3.03;;;;;;;;;;5010329;28;20022;-66
2022/09/22 03:55:19;;;;;;;4.60;2.78;;;;;;;;;;5005451;28;20426;-66
2022/09/22 03:57:45;;;;;;;5.95;3.13;;;;;;;;;;5005749;28;20042;-66
2022/09/22 04:00:13;;;;;;;4.47;2.88;;;;;;;;;;4999300;28;20125;-66
2022/09/22 04:02:39;;;;;;;3.33;2.58;;;;;;;;;;5005940;28;20031;-66
2022/09/22 04:05:05;;;;;;;5.32;2.45;;;;;;;;;;5008485;28;20050;-66
2022/09/22 04:07:31;;;;;;;4.38;2.40;;;;;;;;;;5003106;28;20236;-66
2022/09/22 04:09:58;;;;;;;3.95;2.53;;;;;;;;;;5001572;28;20077;-66
2022/09/22 04:12:24;;;;;;;7.20;3.08;;;;;;;;;;4994930;28;20434;-66
2022/09/22 04:14:50;;;;;;;3.53;2.45;;;;;;;;;;4997807;28;20037;-66
2022/09/22 04:17:19;;;;;;;6.38;2.60;;;;;;;;;;5005765;28;20147;-66
2022/09/22 04:19:45;;;;;;;3.55;2.47;;;;;;;;;;5003232;28;20513;-66
2022/09/22 04:22:11;;;;;;;4.15;2.33;;;;;;;;;;4997486;28;20026;-66
2022/09/22 04:24:38;;;;;;;7.07;2.70;;;;;;;;;;5010331;28;20026;-66
2022/09/22 04:27:04;;;;;;;6.53;2.70;;;;;;;;;;4999149;28;20029;-66
2022/09/22 04:29:30;;;;;;;3.95;2.30;;;;;;;;;;5009290;28;20037;-66
2022/09/22 04:31:56;;;;;;;4.35;2.40;;;;;;;;;;5001616;28;20058;-66
2022/09/22 04:34:22;;;;;;;5.78;2.50;;;;;;;;;;5008839;28;20057;-66
2022/09/22 04:36:48;;;;;;;5.05;3.00;;;;;;;;;;5010532;28;20030;-66
2022/09/22 04:39:14;;;;;;;7.45;2.50;;;;;;;;;;4999814;28;20093;-66
2022/09/22 04:41:40;;;;;;;3.72;2.58;;;;;;;;;;5004006;28;20026;-66
2022/09/22 04:44:06;;;;;;;3.35;2.50;;;;;;;;;;5003761;28;20026;-66
2022/09/22 04:46:33;;;;;;;5.22;2.40;;;;;;;;;;4997243;28;20030;-66
2022/09/22 04:48:59;;;;;;;6.10;2.42;;;;;;;;;;4994113;28;20077;-66
2022/09/22 04:51:25;;;;;;;3.30;2.60;;;;;;;;;;5004391;28;20017;-66
2022/09/22 04:53:51;;;;;;;2.55;2.35;;;;;;;;;;5006435;28;20022;-66
2022/09/22 04:56:17;;;;;;;3.03;2.60;;;;;;;;;;5002384;28;20069;-66
2022/09/22 04:58:43;;;;;;;3.22;2.60;;;;;;;;;;5002199;28;20037;-66
2022/09/22 05:01:10;;;;;;;5.88;2.75;;;;;;;;;;5006486;28;20398;-66
2022/09/22 05:03:37;;;;;;;5.28;3.00;;;;;;;;;;5009213;28;20057;-66
2022/09/22 05:06:07;;;;;;;4.72;2.95;;;;;;;;;;5002180;28;20037;-66
2022/09/22 05:08:33;;;;;;;8.60;3.20;;;;;;;;;;5010393;28;20049;-66
2022/09/22 05:10:59;;;;;;;16.83;2.85;;;;;;;;;;5003136;28;20418;-66
2022/09/22 05:13:25;;;;;;;7.18;2.60;;;;;;;;;;5007421;28;20026;-66
2022/09/22 05:15:51;;;;;;;4.80;2.22;;;;;;;;;;5002357;28;20399;-66
2022/09/22 05:18:18;;;;;;;7.38;2.63;;;;;;;;;;5009105;28;20030;-66
2022/09/22 05:20:44;;;;;;;3.40;2.13;;;;;;;;;;5005357;28;20103;-66
2022/09/22 05:23:10;;;;;;;4.95;2.58;;;;;;;;;;5004993;28;20108;-66
2022/09/22 05:25:37;;;;;;;4.07;2.63;;;;;;;;;;4999573;28;20038;-66
2022/09/22 05:28:03;;;;;;;3.60;2.45;;;;;;;;;;5009946;28;20521;-66
2022/09/22 05:30:29;;;;;;;8.10;3.45;;;;;;;;;;5013840;28;20022;-66
2022/09/22 05:32:56;;;;;;;4.72;2.38;;;;;;;;;;5012435;28;20079;-66
2022/09/22 05:35:23;;;;;;;5.07;2.40;;;;;;;;;;4999161;28;20033;-66
2022/09/22 05:37:50;;;;;;;4.65;2.13;;;;;;;;;;5004797;28;20073;-65
2022/09/22 05:40:16;;;;;;;6.82;2.55;;;;;;;;;;5010977;28;20510;-70
2022/09/22 05:42:43;;;;;;;3.92;2.45;;;;;;;;;;5009757;28;20394;-66
2022/09/22 05:45:10;;;;;;;3.13;2.60;;;;;;;;;;5001770;28;21068;-66
2022/09/22 05:47:36;;;;;;;4.15;2.40;;;;;;;;;;5015662;28;20478;-66
2022/09/22 05:50:02;;;;;;;5.20;2.60;;;;;;;;;;5002085;28;20030;-66
2022/09/22 05:52:28;;;;;;;5.88;2.67;;;;;;;;;;5010661;28;20394;-66
2022/09/22 05:54:56;;;;;;;3.83;2.28;;;;;;;;;;5003333;28;20034;-66
2022/09/22 05:57:24;;;;;;;2.80;2.38;;;;;;;;;;5006642;28;20030;-66
2022/09/22 05:59:51;;;;;;;5.88;3.00;;;;;;;;;;5010247;28;20679;-66
2022/09/22 06:02:17;;;;;;;5.63;2.70;;;;;;;;;;5007876;28;20030;-66
2022/09/22 06:04:43;;;;;;;4.72;2.97;;;;;;;;;;4998420;28;20597;-66
2022/09/22 06:07:09;;;;;;;7.35;3.05;;;;;;;;;;5001652;28;20091;-66
2022/09/22 06:09:35;;;;;;;5.00;3.05;;;;;;;;;;4996830;28;20065;-66
2022/09/22 06:12:01;;;;;;;4.03;3.03;;;;;;;;;;5011564;28;20024;-66
2022/09/22 06:14:28;;;;;;;9.57;4.00;;;;;;;;;;5013427;28;20026;-66
2022/09/22 06:16:54;;;;;;;6.13;4.13;;;;;;;;;;5006449;28;20026;-66
2022/09/22 06:19:24;;;;;;;7.65;3.97;;;;;;;;;;5005481;28;20041;-66
2022/09/22 06:21:51;;;;;;;9.95;3.28;;;;;;;;;;4998485;28;20030;-65
2022/09/22 06:24:17;;;;;;;6.47;3.50;;;;;;;;;;5001289;28;20038;-65
2022/09/22 06:26:44;;;;;;;4.97;3.90;;;;;;;;;;5003975;28;20030;-65
2022/09/22 06:29:10;;;;;;;5.15;3.33;;;;;;;;;;5001413;28;20030;-65
2022/09/22 06:31:37;;;;;;;8.13;3.63;;;;;;;;;;4999220;28;20022;-65
2022/09/22 06:34:03;;;;;;;8.48;3.47;;;;;;;;;;5011278;28;20026;-66
2022/09/22 06:36:30;;;;;;;6.18;3.80;;;;;;;;;;5001731;28;20033;-66
2022/09/22 06:38:59;;;;;;;7.50;4.13;;;;;;;;;;5000292;28;20024;-66
2022/09/22 06:41:25;;;;;;;6.03;3.58;;;;;;;;;;5019190;28;20493;-66
2022/09/22 06:43:56;;;;;;;4.85;3.30;;;;;;;;;;5000347;28;20026;-66
2022/09/22 06:46:25;;;;;;;7.57;4.03;;;;;;;;;;5009732;28;20022;-66
2022/09/22 06:48:56;;;;;;;8.32;3.53;;;;;;;;;;5009003;28;20455;-66
2022/09/22 06:51:31;;;;;;;6.82;3.70;;;;;;;;;;5002096;28;20026;-66
2022/09/22 06:53:58;;;;;;;7.97;3.55;;;;;;;;;;5001294;28;20041;-66
2022/09/22 06:56:25;;;;;;;5.80;3.88;;;;;;;;;;5001897;28;20049;-66
2022/09/22 06:58:51;;;;;;;11.57;3.78;;;;;;;;;;5005011;28;20045;-66
2022/09/22 07:01:18;;;;;;;8.85;3.60;;;;;;;;;;5005828;28;20025;-66
2022/09/22 07:03:45;;;;;;;8.63;4.07;;;;;;;;;;5013734;28;20556;-66
2022/09/22 07:06:16;;;;;;;11.27;3.83;;;;;;;;;;5005717;28;20027;-66
2022/09/22 07:08:43;;;;;;;8.10;3.50;;;;;;;;;;5008100;28;20049;-66
2022/09/22 07:11:09;;;;;;;12.73;3.95;;;;;;;;;;5003695;28;20045;-66
2022/09/22 07:13:37;;;;;;;11.98;4.85;;;;;;;;;;5013319;28;20397;-66
2022/09/22 07:16:08;;;;;;;10.23;4.25;;;;;;;;;;5008733;28;20092;-66
2022/09/22 07:18:34;;;;;;;17.63;4.65;;;;;;;;;;5016356;28;20026;-66
2022/09/22 07:21:01;;;;;;;25.27;4.00;;;;;;;;;;5004661;28;20034;-66
2022/09/22 07:23:28;;;;;;;9.32;4.10;;;;;;;;;;5011998;28;20508;-66
2022/09/22 07:25:55;;;;;;;13.80;3.97;;;;;;;;;;5004337;28;20459;-66
2022/09/22 07:28:21;;;;;;;10.10;4.35;;;;;;;;;;5005006;28;20383;-66
2022/09/22 07:30:47;;;;;;;18.20;4.82;;;;;;;;;;5005219;28;20030;-66
2022/09/22 07:33:13;;;;;;;11.52;4.28;;;;;;;;;;5005295;28;20033;-66
2022/09/22 07:35:39;;;;;;;9.57;4.55;;;;;;;;;;5013522;28;20022;-66
2022/09/22 07:38:06;;;;;;;12.55;4.75;;;;;;;;;;5015257;28;20038;-66
2022/09/22 07:40:32;;;;;;;12.55;4.70;;;;;;;;;;5005227;28;20382;-66
2022/09/22 07:42:58;;;;;;;13.02;5.07;;;;;;;;;;5002252;28;20482;-66
2022/09/22 07:45:24;;;;;;;14.65;5.57;;;;;;;;;;5002244;28;20030;-66
2022/09/22 07:50:35;;;;;;;9.55;5.50;;;;;;;;;;5010143;28;20019;-66
2022/09/22 07:53:02;;;;;;;14.60;5.93;;;;;;;;;;5010685;28;20037;-66
2022/09/22 07:55:29;;;;;;;13.65;5.50;;;;;;;;;;5001573;28;20494;-66
2022/09/22 07:57:59;;;;;;;11.18;5.20;;;;;;;;;;5002837;28;20105;-66
2022/09/22 08:00:26;;;;;;;10.70;4.82;;;;;;;;;;5009726;28;20042;-66
2022/09/22 08:02:56;;;;;;;11.20;4.30;;;;;;;;;;5003350;28;20029;-66
2022/09/22 08:05:26;;;;;;;11.23;4.72;;;;;;;;;;5013692;28;20084;-66
2022/09/22 08:07:54;;;;;;;11.15;4.40;;;;;;;;;;5002671;28;20406;-66
2022/09/22 08:10:20;;;;;;;19.20;4.70;;;;;;;;;;5008458;28;20057;-66
2022/09/22 08:12:47;;;;;;;14.70;5.35;;;;;;;;;;5001797;28;20110;-66
2022/09/22 08:15:13;;;;;;;8.25;4.75;;;;;;;;;;5004227;28;20029;-66
2022/09/22 08:17:39;;;;;;;12.27;4.90;;;;;;;;;;5006079;28;20025;-66
2022/09/22 08:20:06;;;;;;;9.07;4.65;;;;;;;;;;5006774;28;20121;-66
2022/09/22 08:22:33;;;;;;;8.50;5.05;;;;;;;;;;5010701;28;20030;-66
2022/09/22 08:24:59;;;;;;;11.02;4.82;;;;;;;;;;4998872;28;20056;-66
2022/09/22 08:27:25;;;;;;;9.57;5.07;;;;;;;;;;5012411;28;20032;-66
2022/09/22 08:29:51;;;;;;;12.10;4.60;;;;;;;;;;5019725;28;20037;-66
2022/09/22 08:32:18;;;;;;;9.02;4.43;;;;;;;;;;4997827;28;20019;-66
2022/09/22 08:34:44;;;;;;;10.20;4.80;;;;;;;;;;5003549;28;20045;-66
2022/09/22 08:37:12;;;;;;;8.52;4.95;;;;;;;;;;5013362;28;20030;-66
2022/09/22 08:39:39;;;;;;;10.57;4.32;;;;;;;;;;5003135;28;20129;-66
2022/09/22 08:42:19;;;;;;;9.90;3.97;;;;;;;;;;5005535;28;20022;-66
2022/09/22 08:44:45;;;;;;;7.95;4.10;;;;;;;;;;4999314;28;20049;-66
2022/09/22 08:51:50;;;;;;;9.05;3.67;;;;;;;;;;5011407;28;20037;-66
2022/09/22 08:53:05;;;;;;;9.40;4.00;;;;;;;;;;5002390;28;20499;-66
2022/09/22 08:55:31;;;;;;;12.75;4.00;;;;;;;;;;5010230;28;20396;-66
2022/09/22 08:58:07;;;;;;;7.35;3.63;;;;;;;;;;5007850;28;20411;-66
2022/09/22 09:00:39;;;;;;;10.95;3.40;;;;;;;;;;5011295;28;20400;-66
2022/09/22 09:03:08;;;;;;;3.60;2.58;;;;;;;;;;5007189;28;20037;-66
2022/09/22 09:05:38;;;;;;;4.57;2.90;;;;;;;;;;5009515;28;20033;-66
2022/09/22 09:08:23;;;;;;;7.30;2.45;;;;;;;;;;5009049;28;20076;-66
2022/09/22 09:10:53;;;;;;;5.38;2.72;;;;;;;;;;4997126;28;20128;-66
2022/09/22 09:13:25;;;;;;;4.40;2.22;;;;;;;;;;5006601;28;20112;-66
2022/09/22 09:15:56;;;;;;;6.17;2.30;;;;;;;;;;5003142;28;20093;-66
2022/09/22 09:18:27;;;;;;;3.80;2.03;;;;;;;;;;4994165;28;20034;-66
2022/09/22 09:20:54;;;;;;;8.57;2.53;;;;;;;;;;5006446;28;20061;-66
2022/09/22 09:23:28;;;;;;;3.65;2.13;;;;;;;;;;5001450;28;20034;-66
2022/09/22 09:25:55;;;;;;;5.57;2.30;;;;;;;;;;5010276;28;20053;-66
2022/09/22 09:28:31;;;;;;;8.50;2.00;;;;;;;;;;5004811;28;20021;-66
2022/09/22 09:31:06;;;;;;;8.02;3.17;;;;;;;;;;5002658;28;20034;-66
2022/09/22 09:33:39;;;;;;;12.40;2.20;;;;;;;;;;5003556;28;20126;-66
2022/09/22 09:36:11;;;;;;;4.88;1.80;;;;;;;;;;5018385;28;20060;-66
2022/09/22 09:38:42;;;;;;;4.93;1.88;;;;;;;;;;4995121;28;20030;-66
2022/09/22 09:41:11;;;;;;;6.93;2.83;;;;;;;;;;4999658;28;20038;-66
2022/09/22 09:43:41;;;;;;;5.88;2.35;;;;;;;;;;4996830;28;20018;-66
2022/09/22 09:46:10;;;;;;;3.88;2.00;;;;;;;;;;5002700;28;20065;-66
2022/09/22 09:48:36;;;;;;;9.40;1.85;;;;;;;;;;4998060;28;20493;-66
2022/09/22 09:51:04;;;;;;;5.45;1.83;;;;;;;;;;5000036;28;20062;-66
2022/09/22 09:53:38;;;;;;;4.57;1.70;;;;;;;;;;5001001;28;20049;-66
2022/09/22 09:56:14;;;;;;;6.03;1.63;;;;;;;;;;5003228;28;20038;-66
2022/09/22 10:01:40;;;;;;;8.93;2.35;;;;;;;;;;5000478;28;20501;-66
2022/09/22 10:04:17;;;;;;;3.83;2.08;;;;;;;;;;4999450;28;20030;-66
2022/09/22 10:06:43;;;;;;;3.78;1.88;;;;;;;;;;5004274;28;20383;-66
2022/09/22 10:09:10;;;;;;;5.18;1.73;;;;;;;;;;5003393;28;20112;-67
2022/09/22 10:11:36;;;;;;;5.57;2.05;;;;;;;;;;5000406;28;20038;-67
2022/09/22 10:14:02;;;;;;;8.85;2.58;;;;;;;;;;5003149;28;20060;-67
2022/09/22 10:16:30;;;;;;;3.65;1.85;;;;;;;;;;5008438;28;20021;-67
2022/09/22 10:18:59;;;;;;;4.85;1.98;;;;;;;;;;4997434;28;20026;-67
2022/09/22 10:21:27;;;;;;;6.85;2.45;;;;;;;;;;5001968;28;20034;-67
2022/09/22 10:23:56;;;;;;;7.45;2.42;;;;;;;;;;4999071;28;20030;-67
2022/09/22 10:26:32;;;;;;;8.27;2.50;;;;;;;;;;5000161;28;20045;-67
2022/09/22 10:29:15;;;;;;;5.18;2.25;;;;;;;;;;5004022;28;20112;-67
2022/09/22 10:31:47;;;;;;;6.30;2.25;;;;;;;;;;5004005;28;20093;-67
2022/09/22 10:34:30;;;;;;;4.00;1.92;;;;;;;;;;5004060;28;20056;-67
2022/09/22 10:36:57;;;;;;;3.22;1.90;;;;;;;;;;5002406;28;20037;-67
2022/09/22 10:39:29;;;;;;;6.68;2.10;;;;;;;;;;5007431;28;20108;-65
2022/09/22 10:41:56;;;;;;;3.50;2.40;;;;;;;;;;5008610;28;20033;-65
2022/09/22 10:44:28;;;;;;;6.88;2.83;;;;;;;;;;5013192;28;20479;-65
2022/09/22 10:46:56;;;;;;;7.68;2.38;;;;;;;;;;5001524;28;20146;-64
2022/09/22 10:49:22;;;;;;;7.20;2.20;;;;;;;;;;5006962;28;20080;-64
2022/09/22 10:51:53;;;;;;;4.97;2.17;;;;;;;;;;5006951;28;20042;-64
2022/09/22 10:54:40;;;;;;;6.40;2.25;;;;;;;;;;5007424;28;20032;-64
2022/09/22 10:57:09;;;;;;;2.60;2.03;;;;;;;;;;5008072;28;21372;-64
2022/09/22 10:59:38;;;;;;;6.38;2.35;;;;;;;;;;5003964;28;20493;-64
2022/09/22 11:02:11;;;;;;;3.72;2.25;;;;;;;;;;5003835;28;20077;-64
2022/09/22 11:04:50;;;;;;;8.05;2.30;;;;;;;;;;5012573;28;20121;-64
2022/09/22 11:13:27;;;;;;;3.50;2.25;;;;;;;;;;5005747;28;20033;-64
2022/09/22 11:15:54;;;;;;;5.28;2.35;;;;;;;;;;5011690;28;20033;-64
2022/09/22 11:18:39;;;;;;;5.30;2.00;;;;;;;;;;5004575;28;20553;-64
2022/09/22 11:21:13;;;;;;;5.53;2.25;;;;;;;;;;5003355;28;20053;-64
2022/09/22 11:23:45;;;;;;;8.25;1.90;;;;;;;;;;5010196;28;20112;-62
2022/09/22 11:26:11;;;;;;;5.95;2.15;;;;;;;;;;5000850;28;20058;-64
2022/09/22 11:28:56;;;;;;;4.40;1.92;;;;;;;;;;5006187;28;20033;-64
2022/09/22 11:31:40;;;;;;;5.10;2.08;;;;;;;;;;5006471;28;20018;-65
2022/09/22 11:34:09;;;;;;;5.30;2.17;;;;;;;;;;5008473;28;20053;-63
2022/09/22 11:36:44;;;;;;;7.70;2.50;;;;;;;;;;5011092;28;20104;-65
2022/09/22 11:39:19;;;;;;;6.78;1.80;;;;;;;;;;5009947;28;20068;-64
2022/09/22 11:41:51;;;;;;;4.55;1.65;;;;;;;;;;5013675;28;20292;-64
2022/09/22 11:44:33;;;;;;;6.18;2.10;;;;;;;;;;5014757;28;20057;-65
2022/09/22 11:47:08;;;;;;;4.03;1.70;;;;;;;;;;5014417;28;20121;-64
2022/09/22 11:49:53;;;;;;;5.68;2.42;;;;;;;;;;5014665;28;20034;-64
2022/09/22 11:52:29;;;;;;;3.78;1.92;;;;;;;;;;5014567;28;20030;-64
2022/09/22 11:55:04;;;;;;;6.15;1.88;;;;;;;;;;5014973;28;20472;-64
2022/09/22 11:57:41;;;;;;;8.90;2.10;;;;;;;;;;5014710;28;20033;-64
2022/09/22 12:00:07;;;;;;;3.40;1.92;;;;;;;;;;5014440;28;20580;-64
2022/09/22 12:02:45;;;;;;;4.82;2.13;;;;;;;;;;5014451;28;20402;-64
2022/09/22 12:05:25;;;;;;;5.00;2.15;;;;;;;;;;5014524;28;20498;-64
2022/09/22 12:07:55;;;;;;;2.75;1.83;;;;;;;;;;5014641;28;20564;-64
2022/09/22 12:10:30;;;;;;;4.65;2.40;;;;;;;;;;5014012;28;20511;-64
2022/09/22 12:12:56;;;;;;;4.88;2.00;;;;;;;;;;5014420;28;20497;-64
2022/09/22 12:15:43;;;;;;;5.90;1.98;;;;;;;;;;5014190;28;20033;-64
2022/09/22 12:18:13;;;;;;;5.07;1.73;;;;;;;;;;5013910;28;20040;-64
2022/09/22 12:20:42;;;;;;;7.03;1.88;;;;;;;;;;5014161;28;20034;-64
2022/09/22 12:23:08;;;;;;;3.72;1.88;;;;;;;;;;5014309;28;20033;-64
2022/09/22 12:25:49;;;;;;;6.47;2.15;;;;;;;;;;5014186;28;20379;-64
2022/09/22 12:28:21;;;;;;;3.90;1.95;;;;;;;;;;5013915;28;20044;-64
2022/09/22 12:31:18;;;;;;;4.63;1.93;;;;;;;;;;5013815;28;20053;-64
2022/09/22 12:33:46;;;;;;;5.78;2.33;;;;;;;;;;5006024;28;20050;-64
2022/09/22 12:36:13;;;;;;;2.58;1.95;;;;;;;;;;5013698;28;20018;-64
2022/09/22 12:38:39;;;;;;;7.35;2.67;;;;;;;;;;5012495;28;20398;-64
2022/09/22 12:41:06;;;;;;;3.10;2.10;;;;;;;;;;5013661;28;20022;-64
2022/09/22 12:43:33;;;;;;;5.40;1.85;;;;;;;;;;5013776;28;20036;-64
2022/09/22 12:46:02;;;;;;;3.85;1.85;;;;;;;;;;5013447;28;20402;-64
2022/09/22 12:48:28;;;;;;;4.70;1.90;;;;;;;;;;5013417;28;20033;-64
2022/09/22 12:51:14;;;;;;;4.40;2.10;;;;;;;;;;5013624;28;20029;-64
2022/09/22 12:53:40;;;;;;;3.47;1.75;;;;;;;;;;5013701;28;20041;-64
2022/09/22 12:56:26;;;;;;;5.75;2.22;;;;;;;;;;5013643;28;20018;-64
2022/09/22 12:58:52;;;;;;;4.82;2.03;;;;;;;;;;5013435;28;20096;-64
2022/09/22 13:01:30;;;;;;;6.13;2.45;;;;;;;;;;5013122;28;20030;-64
2022/09/22 13:04:11;;;;;;;6.30;2.38;;;;;;;;;;5013316;28;20038;-64
2022/09/22 13:06:37;;;;;;;3.15;2.03;;;;;;;;;;5014085;28;20030;-64
2022/09/22 13:09:04;;;;;;;5.43;2.15;;;;;;;;;;5014215;28;20104;-64
2022/09/22 13:11:49;;;;;;;6.68;2.47;;;;;;;;;;5013675;28;20046;-64
2022/09/22 13:14:33;;;;;;;7.20;2.70;;;;;;;;;;5013477;28;20029;-64
2022/09/22 13:16:59;;;;;;;12.35;2.75;;;;;;;;;;5013865;28;20032;-64
2022/09/22 13:19:25;;;;;;;6.65;3.20;;;;;;;;;;5013615;28;20087;-64
2022/09/22 13:21:52;;;;;;;8.15;2.92;;;;;;;;;;5013788;28;20092;-64
2022/09/22 13:24:19;;;;;;;10.70;2.90;;;;;;;;;;5013510;28;20026;-64
2022/09/22 13:26:45;;;;;;;8.27;2.83;;;;;;;;;;5013878;28;20049;-64
2022/09/22 13:29:18;;;;;;;5.50;2.65;;;;;;;;;;5013357;28;20026;-64
2022/09/22 13:31:50;;;;;;;5.78;2.58;;;;;;;;;;5013617;28;20549;-64
2022/09/22 13:34:20;;;;;;;5.63;2.75;;;;;;;;;;5013277;28;20121;-64
2022/09/22 13:36:47;;;;;;;12.23;3.25;;;;;;;;;;5013573;28;20061;-64
2022/09/22 13:39:14;;;;;;;7.10;2.78;;;;;;;;;;5013401;28;20030;-64
2022/09/22 13:41:43;;;;;;;9.30;2.83;;;;;;;;;;5013382;28;20034;-64
2022/09/22 13:44:11;;;;;;;4.47;3.10;;;;;;;;;;5013411;28;20036;-64
2022/09/22 13:46:46;;;;;;;4.82;2.33;;;;;;;;;;5013023;28;20042;-64
2022/09/22 13:49:28;;;;;;;7.57;2.75;;;;;;;;;;5013028;28;20404;-64
2022/09/22 13:51:55;;;;;;;7.88;3.35;;;;;;;;;;5013297;28;20633;-64
2022/09/22 13:54:23;;;;;;;7.03;3.15;;;;;;;;;;5013212;28;20029;-64
2022/09/22 13:56:49;;;;;;;5.18;2.92;;;;;;;;;;5013415;28;20026;-64
2022/09/22 13:59:16;;;;;;;7.18;3.63;;;;;;;;;;5012969;28;20364;-64
2022/09/22 14:01:46;;;;;;;8.55;2.50;;;;;;;;;;5013158;28;20034;-64
2022/09/22 14:04:23;;;;;;;5.88;3.10;;;;;;;;;;5012843;28;20122;-64
2022/09/22 14:06:50;;;;;;;6.82;3.75;;;;;;;;;;5012999;28;20049;-64
2022/09/22 14:09:17;;;;;;;9.90;3.55;;;;;;;;;;5012845;28;20034;-64
2022/09/22 14:11:43;;;;;;;6.60;3.22;;;;;;;;;;5013109;28;20018;-64
2022/09/22 14:14:23;;;;;;;6.10;3.00;;;;;;;;;;5013021;28;20083;-64
2022/09/22 14:16:50;;;;;;;5.90;3.10;;;;;;;;;;5023090;28;20108;-64
2022/09/22 14:19:19;;;;;;;5.07;3.38;;;;;;;;;;5032804;28;20030;-64
2022/09/22 14:21:49;;;;;;;6.78;3.00;;;;;;;;;;5032495;28;20091;-64
2022/09/22 14:24:15;;;;;;;7.32;2.63;;;;;;;;;;5032412;28;20060;-64
2022/09/22 14:26:52;;;;;;;8.52;3.05;;;;;;;;;;5032421;28;20474;-64
2022/09/22 14:29:21;;;;;;;6.78;2.38;;;;;;;;;;5032497;28;20036;-64
2022/09/22 14:31:51;;;;;;;6.97;3.17;;;;;;;;;;5032456;28;20454;-64
2022/09/22 14:34:21;;;;;;;6.90;2.75;;;;;;;;;;5032365;28;20101;-64
2022/09/22 14:36:48;;;;;;;8.27;3.72;;;;;;;;;;5032625;28;20025;-64
2022/09/22 14:39:18;;;;;;;11.27;3.20;;;;;;;;;;5032507;28;20029;-64
2022/09/22 14:41:50;;;;;;;5.20;3.10;;;;;;;;;;5032374;28;20033;-64
2022/09/22 14:44:34;;;;;;;13.10;3.50;;;;;;;;;;5032781;28;20117;-64
2022/09/22 14:47:18;;;;;;;7.97;3.55;;;;;;;;;;5032734;28;20053;-64
2022/09/22 14:49:44;;;;;;;7.85;3.28;;;;;;;;;;5032375;28;20468;-64
2022/09/22 14:52:13;;;;;;;6.63;3.92;;;;;;;;;;5032632;28;20485;-64
2022/09/22 14:54:42;;;;;;;11.00;3.75;;;;;;;;;;5032157;28;20110;-64
2022/09/22 14:57:08;;;;;;;7.10;3.17;;;;;;;;;;5032356;28;20026;-64
2022/09/22 15:02:35;;;;;;;10.77;4.28;;;;;;;;;;5032279;28;20430;-64
2022/09/22 15:05:02;;;;;;;7.68;3.65;;;;;;;;;;5032314;28;20033;-64
2022/09/22 15:07:28;;;;;;;5.75;3.45;;;;;;;;;;5032160;28;20033;-64
2022/09/22 15:09:59;;;;;;;8.05;3.78;;;;;;;;;;5031786;28;20441;-64
2022/09/22 15:12:35;;;;;;;8.00;3.58;;;;;;;;;;5023349;28;20030;-64